Ercan, Cyprus

11:12 AM EEST on October 20, 2014 (GMT +0300)
Ercan | Change Station
CLOSE
Current Station
Airport
Location: Ercan,
Elevation: 299 ft
Nearby Weather Stations

Elev 299 ft 35.15 °N, 33.50 °E | Updated 22 minutes ago

Clear
Clear
68 °F
Feels Like 68 °F
N
8
Wind Variable Wind from North

Today
High -- | Low -- °F
--% Chance of Precip.
Yesterday
High -- | Low -- °F
Precip. -- in
6:56 AM 6:05 PM
Waning Crescent, 12% visible
Pressure 29.95 in
Visibility -9999.0 miles
Clouds
Dew Point 34 °F
Humidity 28%
Rainfall 0.00 in
Snow Depth Not available.
UV Not available.
Pollen Not available.
Air Quality Not available.
Flu Activity Not available.
METAR LCEN 200750Z 35007KT 300V040 CAVOK 20/01 Q1014 NOSIG RMK RWY11 01007KT

More Conditions Fewer Conditions

Pressure 29.95 in
Visibility -9999.0 miles
Clouds
Dew Point 34 °F
Humidity 28%
Rainfall 0.00 in
Snow Depth Not available.
UV Not available.
Pollen Not available.
Air Quality Not available.
Flu Activity Not available.
METAR LCEN 200750Z 35007KT 300V040 CAVOK 20/01 Q1014 NOSIG RMK RWY11 01007KT

More Conditions Fewer Conditions

10-Day Weather Forecast

Almanac

Astronomy

Oct. 20, 2014 Rise Set
Actual Time 6:56 AM EEST 6:05 PM EEST
Civil Twilight 6:30 AM EEST 6:30 PM EEST
Nautical Twilight 6:00 AM EEST 7:00 PM EEST
Astronomical Twilight 5:31 AM EEST 7:29 PM EEST
Moon 3:33 AM EEST 4:10 PM EEST
Length of Visible Light 12h 00m
Length of Day
11h 09m
Tomorrow will be 2m 5s shorter.
Waning Crescent, 12% of the Moon is Illuminated
Today
Waning Crescent
Oct 23
New
Oct 30
First Quarter
Nov 6
Full
Nov 14
Last Quarter

Yesterday's Extremes

Country Highs Country Lows

Community

WunderPhotos

Upload Photos

1,763,316 photos uploaded!

Nearby

Snow Depth

Not available.

Earthquake Activity

City Distance Mag. Time & Date
No recent earthquake activity has been reported nearby.
Minimum magnitude displayed is 2.5.

Coastal Water Temperatures

Place Temperature
No Stations Reporting

Nearby Weather Stations